sensor_id;sensor_type;location;lat;lon;timestamp;P1;durP1;ratioP1;P2;durP2;ratioP2
20986;SDS011;10652;50.306;8.570;2023-04-10T00:02:05;8.27;;;6.68;;
20986;SDS011;10652;50.306;8.570;2023-04-10T00:06:07;7.88;;;6.20;;
20986;SDS011;10652;50.306;8.570;2023-04-10T00:10:09;8.52;;;6.72;;
20986;SDS011;10652;50.306;8.570;2023-04-10T00:14:12;7.97;;;6.13;;
20986;SDS011;10652;50.306;8.570;2023-04-10T00:18:14;8.32;;;6.55;;
20986;SDS011;10652;50.306;8.570;2023-04-10T00:22:16;8.48;;;6.85;;
20986;SDS011;10652;50.306;8.570;2023-04-10T00:26:19;8.63;;;6.32;;
20986;SDS011;10652;50.306;8.570;2023-04-10T00:30:22;8.18;;;6.47;;
20986;SDS011;10652;50.306;8.570;2023-04-10T00:34:24;8.10;;;6.43;;
20986;SDS011;10652;50.306;8.570;2023-04-10T00:38:26;7.78;;;6.40;;
20986;SDS011;10652;50.306;8.570;2023-04-10T00:42:28;8.82;;;6.82;;
20986;SDS011;10652;50.306;8.570;2023-04-10T00:46:30;8.30;;;6.28;;
20986;SDS011;10652;50.306;8.570;2023-04-10T00:50:33;8.95;;;6.63;;
20986;SDS011;10652;50.306;8.570;2023-04-10T00:54:35;11.40;;;6.90;;
20986;SDS011;10652;50.306;8.570;2023-04-10T00:58:37;8.55;;;6.75;;
20986;SDS011;10652;50.306;8.570;2023-04-10T01:02:40;8.52;;;6.65;;
20986;SDS011;10652;50.306;8.570;2023-04-10T01:11:26;8.25;;;6.35;;
20986;SDS011;10652;50.306;8.570;2023-04-10T01:15:56;6.88;;;6.15;;
20986;SDS011;10652;50.306;8.570;2023-04-10T01:33:03;8.45;;;6.45;;
20986;SDS011;10652;50.306;8.570;2023-04-10T01:37:15;9.60;;;6.53;;
20986;SDS011;10652;50.306;8.570;2023-04-10T01:41:18;7.85;;;6.07;;
20986;SDS011;10652;50.306;8.570;2023-04-10T01:45:24;7.82;;;6.15;;
20986;SDS011;10652;50.306;8.570;2023-04-10T01:49:29;10.15;;;6.47;;
20986;SDS011;10652;50.306;8.570;2023-04-10T01:53:37;8.30;;;6.43;;
20986;SDS011;10652;50.306;8.570;2023-04-10T01:57:40;7.18;;;6.13;;
20986;SDS011;10652;50.306;8.570;2023-04-10T02:01:42;8.00;;;6.28;;
20986;SDS011;10652;50.306;8.570;2023-04-10T02:05:51;6.72;;;5.75;;
20986;SDS011;10652;50.306;8.570;2023-04-10T02:09:59;8.38;;;6.38;;
20986;SDS011;10652;50.306;8.570;2023-04-10T02:14:10;7.55;;;6.00;;
20986;SDS011;10652;50.306;8.570;2023-04-10T02:18:17;8.45;;;6.50;;
20986;SDS011;10652;50.306;8.570;2023-04-10T02:22:20;8.07;;;6.47;;
20986;SDS011;10652;50.306;8.570;2023-04-10T02:26:23;8.18;;;6.38;;
20986;SDS011;10652;50.306;8.570;2023-04-10T02:30:26;7.88;;;6.35;;
20986;SDS011;10652;50.306;8.570;2023-04-10T02:34:28;7.47;;;6.53;;
20986;SDS011;10652;50.306;8.570;2023-04-10T02:38:30;7.30;;;6.15;;
20986;SDS011;10652;50.306;8.570;2023-04-10T02:42:32;8.38;;;6.68;;
20986;SDS011;10652;50.306;8.570;2023-04-10T02:46:35;9.32;;;6.70;;
20986;SDS011;10652;50.306;8.570;2023-04-10T02:50:39;7.78;;;6.32;;
20986;SDS011;10652;50.306;8.570;2023-04-10T02:54:46;8.63;;;6.35;;
20986;SDS011;10652;50.306;8.570;2023-04-10T02:58:49;7.28;;;6.20;;
20986;SDS011;10652;50.306;8.570;2023-04-10T03:02:51;7.65;;;6.10;;
20986;SDS011;10652;50.306;8.570;2023-04-10T03:06:54;8.10;;;6.35;;
20986;SDS011;10652;50.306;8.570;2023-04-10T03:10:57;7.60;;;6.43;;
20986;SDS011;10652;50.306;8.570;2023-04-10T03:14:59;8.73;;;6.70;;
20986;SDS011;10652;50.306;8.570;2023-04-10T03:19:02;8.80;;;7.28;;
20986;SDS011;10652;50.306;8.570;2023-04-10T03:23:04;9.02;;;7.30;;
20986;SDS011;10652;50.306;8.570;2023-04-10T03:27:07;9.50;;;7.25;;
20986;SDS011;10652;50.306;8.570;2023-04-10T03:31:09;8.73;;;6.60;;
20986;SDS011;10652;50.306;8.570;2023-04-10T03:35:14;8.35;;;6.70;;
20986;SDS011;10652;50.306;8.570;2023-04-10T03:39:16;8.68;;;6.75;;
20986;SDS011;10652;50.306;8.570;2023-04-10T03:43:18;7.38;;;6.63;;
20986;SDS011;10652;50.306;8.570;2023-04-10T03:47:21;7.20;;;6.20;;
20986;SDS011;10652;50.306;8.570;2023-04-10T03:51:26;7.68;;;5.88;;
20986;SDS011;10652;50.306;8.570;2023-04-10T03:55:28;6.95;;;5.97;;
20986;SDS011;10652;50.306;8.570;2023-04-10T03:59:31;7.70;;;6.22;;
20986;SDS011;10652;50.306;8.570;2023-04-10T04:03:43;7.18;;;6.20;;
20986;SDS011;10652;50.306;8.570;2023-04-10T04:08:08;7.03;;;5.72;;
20986;SDS011;10652;50.306;8.570;2023-04-10T04:12:27;7.82;;;5.78;;
20986;SDS011;10652;50.306;8.570;2023-04-10T04:16:36;7.95;;;6.20;;
20986;SDS011;10652;50.306;8.570;2023-04-10T04:21:16;7.57;;;6.53;;
20986;SDS011;10652;50.306;8.570;2023-04-10T04:25:54;8.27;;;6.80;;
20986;SDS011;10652;50.306;8.570;2023-04-10T04:30:15;8.32;;;6.07;;
20986;SDS011;10652;50.306;8.570;2023-04-10T04:34:23;7.75;;;6.28;;
20986;SDS011;10652;50.306;8.570;2023-04-10T04:38:44;10.52;;;7.00;;
20986;SDS011;10652;50.306;8.570;2023-04-10T04:43:05;8.15;;;7.07;;
20986;SDS011;10652;50.306;8.570;2023-04-10T04:47:31;8.18;;;6.07;;
20986;SDS011;10652;50.306;8.570;2023-04-10T04:51:53;7.88;;;6.30;;
20986;SDS011;10652;50.306;8.570;2023-04-10T04:56:11;8.00;;;6.28;;
20986;SDS011;10652;50.306;8.570;2023-04-10T05:00:37;8.88;;;6.43;;
20986;SDS011;10652;50.306;8.570;2023-04-10T05:09:09;9.85;;;7.78;;
20986;SDS011;10652;50.306;8.570;2023-04-10T05:13:40;7.97;;;6.70;;
20986;SDS011;10652;50.306;8.570;2023-04-10T05:18:09;8.48;;;6.63;;
20986;SDS011;10652;50.306;8.570;2023-04-10T05:22:32;8.75;;;6.80;;
20986;SDS011;10652;50.306;8.570;2023-04-10T05:27:07;10.00;;;6.88;;
20986;SDS011;10652;50.306;8.570;2023-04-10T05:31:38;7.47;;;6.25;;
20986;SDS011;10652;50.306;8.570;2023-04-10T05:36:11;8.57;;;6.65;;
20986;SDS011;10652;50.306;8.570;2023-04-10T05:40:27;8.55;;;7.40;;
20986;SDS011;10652;50.306;8.570;2023-04-10T05:44:50;7.90;;;6.65;;
20986;SDS011;10652;50.306;8.570;2023-04-10T05:49:10;8.05;;;6.30;;
20986;SDS011;10652;50.306;8.570;2023-04-10T05:53:30;8.57;;;6.68;;
20986;SDS011;10652;50.306;8.570;2023-04-10T05:57:58;7.03;;;6.20;;
20986;SDS011;10652;50.306;8.570;2023-04-10T06:02:33;8.32;;;6.82;;
20986;SDS011;10652;50.306;8.570;2023-04-10T06:06:37;8.48;;;7.03;;
20986;SDS011;10652;50.306;8.570;2023-04-10T06:10:39;8.25;;;6.95;;
20986;SDS011;10652;50.306;8.570;2023-04-10T06:14:45;7.38;;;6.47;;
20986;SDS011;10652;50.306;8.570;2023-04-10T06:18:52;7.63;;;6.68;;
20986;SDS011;10652;50.306;8.570;2023-04-10T06:22:55;7.32;;;6.35;;
20986;SDS011;10652;50.306;8.570;2023-04-10T06:26:59;8.10;;;6.85;;
20986;SDS011;10652;50.306;8.570;2023-04-10T06:31:01;8.27;;;6.97;;
20986;SDS011;10652;50.306;8.570;2023-04-10T06:35:08;8.67;;;6.97;;
20986;SDS011;10652;50.306;8.570;2023-04-10T06:39:10;8.40;;;7.28;;
20986;SDS011;10652;50.306;8.570;2023-04-10T06:43:12;7.65;;;6.63;;
20986;SDS011;10652;50.306;8.570;2023-04-10T06:47:14;11.80;;;8.43;;
20986;SDS011;10652;50.306;8.570;2023-04-10T06:51:17;11.98;;;8.50;;
20986;SDS011;10652;50.306;8.570;2023-04-10T06:55:19;10.75;;;7.80;;
20986;SDS011;10652;50.306;8.570;2023-04-10T06:59:22;11.18;;;8.85;;
20986;SDS011;10652;50.306;8.570;2023-04-10T07:03:24;11.63;;;8.27;;
20986;SDS011;10652;50.306;8.570;2023-04-10T07:07:26;10.77;;;8.43;;
20986;SDS011;10652;50.306;8.570;2023-04-10T07:11:30;11.10;;;7.63;;
20986;SDS011;10652;50.306;8.570;2023-04-10T07:15:32;9.48;;;7.82;;
20986;SDS011;10652;50.306;8.570;2023-04-10T07:19:34;8.85;;;7.45;;
20986;SDS011;10652;50.306;8.570;2023-04-10T07:23:36;9.52;;;7.55;;
20986;SDS011;10652;50.306;8.570;2023-04-10T07:27:38;9.75;;;7.45;;
20986;SDS011;10652;50.306;8.570;2023-04-10T07:31:40;9.30;;;7.75;;
20986;SDS011;10652;50.306;8.570;2023-04-10T07:35:43;10.15;;;8.00;;
20986;SDS011;10652;50.306;8.570;2023-04-10T07:39:45;10.68;;;8.50;;
20986;SDS011;10652;50.306;8.570;2023-04-10T07:43:47;9.25;;;7.80;;
20986;SDS011;10652;50.306;8.570;2023-04-10T07:47:49;9.75;;;7.70;;
20986;SDS011;10652;50.306;8.570;2023-04-10T07:51:51;12.70;;;8.57;;
20986;SDS011;10652;50.306;8.570;2023-04-10T07:55:53;9.40;;;7.90;;
20986;SDS011;10652;50.306;8.570;2023-04-10T07:59:55;9.75;;;8.00;;
20986;SDS011;10652;50.306;8.570;2023-04-10T08:03:57;8.95;;;7.88;;
20986;SDS011;10652;50.306;8.570;2023-04-10T08:08:00;8.80;;;7.35;;
20986;SDS011;10652;50.306;8.570;2023-04-10T08:12:02;9.15;;;7.68;;
20986;SDS011;10652;50.306;8.570;2023-04-10T08:16:05;8.98;;;7.57;;
20986;SDS011;10652;50.306;8.570;2023-04-10T08:20:07;10.45;;;8.00;;
20986;SDS011;10652;50.306;8.570;2023-04-10T08:24:10;9.70;;;8.23;;
20986;SDS011;10652;50.306;8.570;2023-04-10T08:28:12;9.38;;;7.80;;
20986;SDS011;10652;50.306;8.570;2023-04-10T08:32:14;9.98;;;8.35;;
20986;SDS011;10652;50.306;8.570;2023-04-10T08:36:16;10.27;;;7.85;;
20986;SDS011;10652;50.306;8.570;2023-04-10T08:40:21;10.13;;;8.55;;
20986;SDS011;10652;50.306;8.570;2023-04-10T08:44:23;11.00;;;8.70;;
20986;SDS011;10652;50.306;8.570;2023-04-10T08:48:25;10.70;;;8.65;;
20986;SDS011;10652;50.306;8.570;2023-04-10T08:52:46;11.45;;;8.68;;
20986;SDS011;10652;50.306;8.570;2023-04-10T08:56:53;12.30;;;9.18;;
20986;SDS011;10652;50.306;8.570;2023-04-10T09:00:56;9.98;;;8.18;;
20986;SDS011;10652;50.306;8.570;2023-04-10T09:04:59;12.57;;;9.15;;
20986;SDS011;10652;50.306;8.570;2023-04-10T09:09:05;10.20;;;7.65;;
20986;SDS011;10652;50.306;8.570;2023-04-10T09:13:07;11.25;;;8.23;;
20986;SDS011;10652;50.306;8.570;2023-04-10T09:17:13;8.45;;;7.40;;
20986;SDS011;10652;50.306;8.570;2023-04-10T09:21:20;9.57;;;8.27;;
20986;SDS011;10652;50.306;8.570;2023-04-10T09:29:40;10.70;;;8.13;;
20986;SDS011;10652;50.306;8.570;2023-04-10T09:33:49;10.02;;;8.35;;
20986;SDS011;10652;50.306;8.570;2023-04-10T09:42:27;8.68;;;7.07;;
20986;SDS011;10652;50.306;8.570;2023-04-10T09:46:31;7.70;;;6.20;;
20986;SDS011;10652;50.306;8.570;2023-04-10T09:50:37;6.65;;;5.82;;
20986;SDS011;10652;50.306;8.570;2023-04-10T09:54:41;6.40;;;5.80;;
20986;SDS011;10652;50.306;8.570;2023-04-10T09:58:43;6.65;;;5.63;;
20986;SDS011;10652;50.306;8.570;2023-04-10T10:02:46;7.50;;;5.82;;
20986;SDS011;10652;50.306;8.570;2023-04-10T10:06:50;6.95;;;5.60;;
20986;SDS011;10652;50.306;8.570;2023-04-10T10:10:52;6.10;;;5.43;;
20986;SDS011;10652;50.306;8.570;2023-04-10T10:15:03;5.95;;;5.32;;
20986;SDS011;10652;50.306;8.570;2023-04-10T10:19:16;6.22;;;5.43;;
20986;SDS011;10652;50.306;8.570;2023-04-10T10:23:25;6.38;;;5.40;;
20986;SDS011;10652;50.306;8.570;2023-04-10T10:27:32;5.55;;;4.75;;
20986;SDS011;10652;50.306;8.570;2023-04-10T10:31:38;5.30;;;4.80;;
20986;SDS011;10652;50.306;8.570;2023-04-10T10:35:41;5.78;;;4.75;;
20986;SDS011;10652;50.306;8.570;2023-04-10T10:39:58;5.53;;;4.90;;
20986;SDS011;10652;50.306;8.570;2023-04-10T10:44:14;5.00;;;4.25;;
20986;SDS011;10652;50.306;8.570;2023-04-10T10:48:22;6.07;;;4.60;;
20986;SDS011;10652;50.306;8.570;2023-04-10T10:52:44;5.30;;;4.80;;
20986;SDS011;10652;50.306;8.570;2023-04-10T10:56:50;6.25;;;4.78;;
20986;SDS011;10652;50.306;8.570;2023-04-10T11:01:02;4.75;;;4.25;;
20986;SDS011;10652;50.306;8.570;2023-04-10T11:05:06;4.93;;;4.43;;
20986;SDS011;10652;50.306;8.570;2023-04-10T11:09:08;5.60;;;5.00;;
20986;SDS011;10652;50.306;8.570;2023-04-10T11:17:59;4.32;;;3.92;;
20986;SDS011;10652;50.306;8.570;2023-04-10T11:22:05;5.60;;;4.20;;
20986;SDS011;10652;50.306;8.570;2023-04-10T11:26:09;5.03;;;4.25;;
20986;SDS011;10652;50.306;8.570;2023-04-10T11:30:24;5.18;;;4.28;;
20986;SDS011;10652;50.306;8.570;2023-04-10T11:34:30;5.78;;;4.40;;
20986;SDS011;10652;50.306;8.570;2023-04-10T11:38:33;4.30;;;3.85;;
20986;SDS011;10652;50.306;8.570;2023-04-10T11:42:36;4.40;;;4.00;;
20986;SDS011;10652;50.306;8.570;2023-04-10T11:46:39;4.47;;;4.07;;
20986;SDS011;10652;50.306;8.570;2023-04-10T11:50:42;4.97;;;4.20;;
20986;SDS011;10652;50.306;8.570;2023-04-10T11:54:47;4.65;;;4.20;;
20986;SDS011;10652;50.306;8.570;2023-04-10T11:58:49;4.75;;;4.00;;
20986;SDS011;10652;50.306;8.570;2023-04-10T12:02:55;4.07;;;3.67;;
20986;SDS011;10652;50.306;8.570;2023-04-10T12:06:57;4.18;;;3.78;;
20986;SDS011;10652;50.306;8.570;2023-04-10T12:11:00;5.38;;;4.10;;
20986;SDS011;10652;50.306;8.570;2023-04-10T12:15:02;3.95;;;3.58;;
20986;SDS011;10652;50.306;8.570;2023-04-10T12:19:24;4.28;;;3.72;;
20986;SDS011;10652;50.306;8.570;2023-04-10T12:23:27;4.93;;;3.08;;
20986;SDS011;10652;50.306;8.570;2023-04-10T12:27:30;4.35;;;3.67;;
20986;SDS011;10652;50.306;8.570;2023-04-10T12:31:33;3.55;;;3.25;;
20986;SDS011;10652;50.306;8.570;2023-04-10T12:35:37;4.05;;;3.65;;
20986;SDS011;10652;50.306;8.570;2023-04-10T12:39:40;4.72;;;4.00;;
20986;SDS011;10652;50.306;8.570;2023-04-10T12:43:42;3.50;;;3.20;;
20986;SDS011;10652;50.306;8.570;2023-04-10T12:47:46;4.32;;;3.13;;
20986;SDS011;10652;50.306;8.570;2023-04-10T12:51:50;3.45;;;2.80;;
20986;SDS011;10652;50.306;8.570;2023-04-10T13:00:00;2.53;;;2.33;;
20986;SDS011;10652;50.306;8.570;2023-04-10T13:04:04;2.80;;;2.40;;
20986;SDS011;10652;50.306;8.570;2023-04-10T13:08:06;2.30;;;2.10;;
20986;SDS011;10652;50.306;8.570;2023-04-10T13:12:08;2.47;;;2.10;;
20986;SDS011;10652;50.306;8.570;2023-04-10T13:16:10;1.63;;;1.52;;
20986;SDS011;10652;50.306;8.570;2023-04-10T13:20:14;1.67;;;1.58;;
20986;SDS011;10652;50.306;8.570;2023-04-10T13:24:17;1.60;;;1.50;;
20986;SDS011;10652;50.306;8.570;2023-04-10T13:28:19;1.45;;;1.35;;
20986;SDS011;10652;50.306;8.570;2023-04-10T13:32:22;1.63;;;1.30;;
20986;SDS011;10652;50.306;8.570;2023-04-10T13:36:24;1.70;;;1.40;;
20986;SDS011;10652;50.306;8.570;2023-04-10T13:40:27;2.40;;;1.50;;
20986;SDS011;10652;50.306;8.570;2023-04-10T13:44:29;1.45;;;1.35;;
20986;SDS011;10652;50.306;8.570;2023-04-10T13:48:32;1.58;;;1.48;;
20986;SDS011;10652;50.306;8.570;2023-04-10T13:52:41;2.17;;;1.20;;
20986;SDS011;10652;50.306;8.570;2023-04-10T13:56:43;1.50;;;1.40;;
20986;SDS011;10652;50.306;8.570;2023-04-10T14:00:47;1.48;;;1.38;;
20986;SDS011;10652;50.306;8.570;2023-04-10T14:04:49;1.98;;;1.60;;
20986;SDS011;10652;50.306;8.570;2023-04-10T14:08:52;1.95;;;1.75;;
20986;SDS011;10652;50.306;8.570;2023-04-10T14:12:54;3.90;;;1.58;;
20986;SDS011;10652;50.306;8.570;2023-04-10T14:16:57;2.25;;;2.05;;
20986;SDS011;10652;50.306;8.570;2023-04-10T14:20:59;2.50;;;1.88;;
20986;SDS011;10652;50.306;8.570;2023-04-10T14:25:01;2.30;;;2.10;;
20986;SDS011;10652;50.306;8.570;2023-04-10T14:29:14;1.67;;;1.58;;
20986;SDS011;10652;50.306;8.570;2023-04-10T14:33:21;2.53;;;1.90;;
20986;SDS011;10652;50.306;8.570;2023-04-10T14:37:23;1.95;;;1.77;;
20986;SDS011;10652;50.306;8.570;2023-04-10T14:41:25;2.25;;;1.80;;
20986;SDS011;10652;50.306;8.570;2023-04-10T14:45:27;2.63;;;1.80;;
20986;SDS011;10652;50.306;8.570;2023-04-10T14:49:29;2.75;;;1.52;;
20986;SDS011;10652;50.306;8.570;2023-04-10T14:53:31;2.40;;;1.60;;
20986;SDS011;10652;50.306;8.570;2023-04-10T14:57:33;1.77;;;1.67;;
20986;SDS011;10652;50.306;8.570;2023-04-10T15:01:36;2.97;;;1.75;;
20986;SDS011;10652;50.306;8.570;2023-04-10T15:05:39;1.70;;;1.60;;
20986;SDS011;10652;50.306;8.570;2023-04-10T15:09:41;2.63;;;1.70;;
20986;SDS011;10652;50.306;8.570;2023-04-10T15:13:45;1.80;;;1.70;;
20986;SDS011;10652;50.306;8.570;2023-04-10T15:17:48;2.97;;;1.88;;
20986;SDS011;10652;50.306;8.570;2023-04-10T15:21:50;2.10;;;1.90;;
20986;SDS011;10652;50.306;8.570;2023-04-10T15:25:52;2.00;;;1.80;;
20986;SDS011;10652;50.306;8.570;2023-04-10T15:29:54;1.52;;;1.42;;
20986;SDS011;10652;50.306;8.570;2023-04-10T15:33:56;2.88;;;1.60;;
20986;SDS011;10652;50.306;8.570;2023-04-10T15:37:58;2.80;;;1.58;;
20986;SDS011;10652;50.306;8.570;2023-04-10T15:42:00;2.10;;;1.90;;
20986;SDS011;10652;50.306;8.570;2023-04-10T15:46:04;1.70;;;1.60;;
20986;SDS011;10652;50.306;8.570;2023-04-10T15:50:07;1.75;;;1.52;;
20986;SDS011;10652;50.306;8.570;2023-04-10T15:54:11;1.90;;;1.60;;
20986;SDS011;10652;50.306;8.570;2023-04-10T15:58:13;2.10;;;1.80;;
20986;SDS011;10652;50.306;8.570;2023-04-10T16:02:15;2.08;;;1.60;;
20986;SDS011;10652;50.306;8.570;2023-04-10T16:06:17;1.38;;;1.27;;
20986;SDS011;10652;50.306;8.570;2023-04-10T16:10:19;1.85;;;1.50;;
20986;SDS011;10652;50.306;8.570;2023-04-10T16:14:22;1.42;;;1.27;;
20986;SDS011;10652;50.306;8.570;2023-04-10T16:18:24;3.83;;;1.80;;
20986;SDS011;10652;50.306;8.570;2023-04-10T16:22:26;1.83;;;1.63;;
20986;SDS011;10652;50.306;8.570;2023-04-10T16:26:28;1.90;;;1.58;;
20986;SDS011;10652;50.306;8.570;2023-04-10T16:30:30;2.50;;;1.83;;
20986;SDS011;10652;50.306;8.570;2023-04-10T16:34:32;2.50;;;1.42;;
20986;SDS011;10652;50.306;8.570;2023-04-10T16:38:35;1.60;;;1.50;;
20986;SDS011;10652;50.306;8.570;2023-04-10T16:42:37;1.67;;;1.58;;
20986;SDS011;10652;50.306;8.570;2023-04-10T16:46:40;1.90;;;1.42;;
20986;SDS011;10652;50.306;8.570;2023-04-10T16:50:42;2.53;;;1.73;;
20986;SDS011;10652;50.306;8.570;2023-04-10T16:54:44;1.40;;;1.30;;
20986;SDS011;10652;50.306;8.570;2023-04-10T16:58:46;1.58;;;1.48;;
20986;SDS011;10652;50.306;8.570;2023-04-10T17:02:48;2.78;;;1.30;;
20986;SDS011;10652;50.306;8.570;2023-04-10T17:06:50;2.17;;;1.50;;
20986;SDS011;10652;50.306;8.570;2023-04-10T17:10:52;1.50;;;1.40;;
20986;SDS011;10652;50.306;8.570;2023-04-10T17:14:54;1.50;;;1.40;;
20986;SDS011;10652;50.306;8.570;2023-04-10T17:18:56;2.65;;;1.50;;
20986;SDS011;10652;50.306;8.570;2023-04-10T17:22:59;1.70;;;1.55;;
20986;SDS011;10652;50.306;8.570;2023-04-10T17:27:01;2.97;;;2.50;;
20986;SDS011;10652;50.306;8.570;2023-04-10T17:31:03;1.73;;;1.55;;
20986;SDS011;10652;50.306;8.570;2023-04-10T17:35:05;2.25;;;1.77;;
20986;SDS011;10652;50.306;8.570;2023-04-10T17:39:07;4.70;;;1.70;;
20986;SDS011;10652;50.306;8.570;2023-04-10T17:43:09;1.85;;;1.60;;
20986;SDS011;10652;50.306;8.570;2023-04-10T17:47:11;3.40;;;1.70;;
20986;SDS011;10652;50.306;8.570;2023-04-10T17:51:13;3.17;;;1.60;;
20986;SDS011;10652;50.306;8.570;2023-04-10T17:55:16;2.28;;;1.60;;
20986;SDS011;10652;50.306;8.570;2023-04-10T17:59:21;1.85;;;1.60;;
20986;SDS011;10652;50.306;8.570;2023-04-10T18:03:23;1.42;;;1.33;;
20986;SDS011;10652;50.306;8.570;2023-04-10T18:07:25;2.03;;;1.60;;
20986;SDS011;10652;50.306;8.570;2023-04-10T18:11:27;2.15;;;1.85;;
20986;SDS011;10652;50.306;8.570;2023-04-10T18:15:30;1.85;;;1.63;;
20986;SDS011;10652;50.306;8.570;2023-04-10T18:19:32;1.48;;;1.38;;
20986;SDS011;10652;50.306;8.570;2023-04-10T18:23:34;1.67;;;1.20;;
20986;SDS011;10652;50.306;8.570;2023-04-10T18:27:39;1.75;;;1.60;;
20986;SDS011;10652;50.306;8.570;2023-04-10T18:31:43;3.17;;;2.22;;
20986;SDS011;10652;50.306;8.570;2023-04-10T18:35:45;2.10;;;1.70;;
20986;SDS011;10652;50.306;8.570;2023-04-10T18:39:47;2.70;;;1.92;;
20986;SDS011;10652;50.306;8.570;2023-04-10T18:43:49;1.80;;;1.70;;
20986;SDS011;10652;50.306;8.570;2023-04-10T18:48:05;1.58;;;1.30;;
20986;SDS011;10652;50.306;8.570;2023-04-10T18:52:08;1.67;;;1.50;;
20986;SDS011;10652;50.306;8.570;2023-04-10T18:56:10;1.70;;;1.38;;
20986;SDS011;10652;50.306;8.570;2023-04-10T19:00:12;1.58;;;1.40;;
20986;SDS011;10652;50.306;8.570;2023-04-10T19:04:14;2.17;;;1.70;;
20986;SDS011;10652;50.306;8.570;2023-04-10T19:08:16;2.95;;;1.80;;
20986;SDS011;10652;50.306;8.570;2023-04-10T19:12:19;1.73;;;1.58;;
20986;SDS011;10652;50.306;8.570;2023-04-10T19:16:21;2.05;;;1.27;;
20986;SDS011;10652;50.306;8.570;2023-04-10T19:20:23;1.58;;;1.40;;
20986;SDS011;10652;50.306;8.570;2023-04-10T19:24:46;1.20;;;1.10;;
20986;SDS011;10652;50.306;8.570;2023-04-10T19:28:48;1.50;;;1.40;;
20986;SDS011;10652;50.306;8.570;2023-04-10T19:32:50;1.40;;;1.30;;
20986;SDS011;10652;50.306;8.570;2023-04-10T19:36:52;1.65;;;1.20;;
20986;SDS011;10652;50.306;8.570;2023-04-10T19:40:55;1.80;;;1.50;;
20986;SDS011;10652;50.306;8.570;2023-04-10T19:44:57;1.30;;;1.20;;
20986;SDS011;10652;50.306;8.570;2023-04-10T19:48:59;2.17;;;1.40;;
20986;SDS011;10652;50.306;8.570;2023-04-10T19:53:01;1.90;;;1.40;;
20986;SDS011;10652;50.306;8.570;2023-04-10T19:57:05;2.22;;;1.60;;
20986;SDS011;10652;50.306;8.570;2023-04-10T20:01:07;1.70;;;1.50;;
20986;SDS011;10652;50.306;8.570;2023-04-10T20:05:10;2.08;;;1.50;;
20986;SDS011;10652;50.306;8.570;2023-04-10T20:09:13;1.75;;;1.45;;
20986;SDS011;10652;50.306;8.570;2023-04-10T20:13:16;1.70;;;1.60;;
20986;SDS011;10652;50.306;8.570;2023-04-10T20:17:18;1.40;;;1.30;;
20986;SDS011;10652;50.306;8.570;2023-04-10T20:21:20;1.50;;;1.40;;
20986;SDS011;10652;50.306;8.570;2023-04-10T20:25:22;2.03;;;1.40;;
20986;SDS011;10652;50.306;8.570;2023-04-10T20:29:25;1.80;;;1.67;;
20986;SDS011;10652;50.306;8.570;2023-04-10T20:33:27;2.38;;;1.48;;
20986;SDS011;10652;50.306;8.570;2023-04-10T20:37:29;1.50;;;1.40;;
20986;SDS011;10652;50.306;8.570;2023-04-10T20:41:31;2.10;;;1.70;;
20986;SDS011;10652;50.306;8.570;2023-04-10T20:45:33;1.83;;;1.73;;
20986;SDS011;10652;50.306;8.570;2023-04-10T20:49:35;1.63;;;1.52;;
20986;SDS011;10652;50.306;8.570;2023-04-10T20:53:40;2.08;;;1.70;;
20986;SDS011;10652;50.306;8.570;2023-04-10T20:57:42;2.95;;;1.60;;
20986;SDS011;10652;50.306;8.570;2023-04-10T21:01:44;1.63;;;1.50;;
20986;SDS011;10652;50.306;8.570;2023-04-10T21:05:46;3.22;;;1.60;;
20986;SDS011;10652;50.306;8.570;2023-04-10T21:09:48;1.77;;;1.67;;
20986;SDS011;10652;50.306;8.570;2023-04-10T21:13:51;1.45;;;1.35;;
20986;SDS011;10652;50.306;8.570;2023-04-10T21:17:53;2.95;;;1.77;;
20986;SDS011;10652;50.306;8.570;2023-04-10T21:21:55;1.80;;;1.70;;
20986;SDS011;10652;50.306;8.570;2023-04-10T21:25:57;1.80;;;1.52;;
20986;SDS011;10652;50.306;8.570;2023-04-10T21:30:00;2.70;;;1.80;;
20986;SDS011;10652;50.306;8.570;2023-04-10T21:34:02;1.83;;;1.48;;
20986;SDS011;10652;50.306;8.570;2023-04-10T21:38:04;1.83;;;1.33;;
20986;SDS011;10652;50.306;8.570;2023-04-10T21:42:06;1.75;;;1.50;;
20986;SDS011;10652;50.306;8.570;2023-04-10T21:46:08;1.75;;;1.65;;
20986;SDS011;10652;50.306;8.570;2023-04-10T21:50:10;2.88;;;2.08;;
20986;SDS011;10652;50.306;8.570;2023-04-10T21:54:12;3.63;;;2.40;;
20986;SDS011;10652;50.306;8.570;2023-04-10T21:58:15;4.57;;;1.80;;
20986;SDS011;10652;50.306;8.570;2023-04-10T22:02:17;4.88;;;2.78;;
20986;SDS011;10652;50.306;8.570;2023-04-10T22:06:19;3.67;;;2.70;;
20986;SDS011;10652;50.306;8.570;2023-04-10T22:10:21;1.98;;;1.70;;
20986;SDS011;10652;50.306;8.570;2023-04-10T22:14:23;2.38;;;1.50;;
20986;SDS011;10652;50.306;8.570;2023-04-10T22:18:26;3.80;;;2.45;;
20986;SDS011;10652;50.306;8.570;2023-04-10T22:22:28;3.88;;;1.83;;
20986;SDS011;10652;50.306;8.570;2023-04-10T22:26:32;2.65;;;1.85;;
20986;SDS011;10652;50.306;8.570;2023-04-10T22:30:34;3.55;;;1.95;;
20986;SDS011;10652;50.306;8.570;2023-04-10T22:34:37;2.28;;;1.83;;
20986;SDS011;10652;50.306;8.570;2023-04-10T22:38:39;4.25;;;1.92;;
20986;SDS011;10652;50.306;8.570;2023-04-10T22:42:41;3.63;;;1.80;;
20986;SDS011;10652;50.306;8.570;2023-04-10T22:46:44;4.53;;;2.03;;
20986;SDS011;10652;50.306;8.570;2023-04-10T22:50:48;2.40;;;2.20;;
20986;SDS011;10652;50.306;8.570;2023-04-10T22:54:50;2.85;;;2.20;;
20986;SDS011;10652;50.306;8.570;2023-04-10T22:58:53;3.38;;;1.95;;
20986;SDS011;10652;50.306;8.570;2023-04-10T23:02:56;4.00;;;2.40;;
20986;SDS011;10652;50.306;8.570;2023-04-10T23:06:58;2.60;;;2.20;;
20986;SDS011;10652;50.306;8.570;2023-04-10T23:11:00;2.30;;;2.10;;
20986;SDS011;10652;50.306;8.570;2023-04-10T23:15:03;2.97;;;2.42;;
20986;SDS011;10652;50.306;8.570;2023-04-10T23:19:06;2.53;;;2.10;;
20986;SDS011;10652;50.306;8.570;2023-04-10T23:23:08;3.35;;;2.00;;
20986;SDS011;10652;50.306;8.570;2023-04-10T23:27:10;2.17;;;0.60;;
20986;SDS011;10652;50.306;8.570;2023-04-10T23:31:12;1.02;;;0.68;;
20986;SDS011;10652;50.306;8.570;2023-04-10T23:35:14;1.20;;;0.82;;
20986;SDS011;10652;50.306;8.570;2023-04-10T23:39:16;1.65;;;0.40;;
20986;SDS011;10652;50.306;8.570;2023-04-10T23:43:18;0.85;;;0.22;;
20986;SDS011;10652;50.306;8.570;2023-04-10T23:47:20;1.15;;;0.75;;
20986;SDS011;10652;50.306;8.570;2023-04-10T23:51:22;0.68;;;0.40;;
20986;SDS011;10652;50.306;8.570;2023-04-10T23:55:24;1.63;;;0.38;;
20986;SDS011;10652;50.306;8.570;2023-04-10T23:59:26;1.02;;;0.40;;
